createdAt,value
2022-08-09T00:00:12.062Z,18.60
2022-08-09T00:02:49.140Z,18.46
2022-08-09T00:06:15.774Z,18.39
2022-08-09T00:08:09.937Z,18.31
2022-08-09T00:10:39.179Z,18.29
2022-08-09T00:13:16.879Z,18.42
2022-08-09T00:15:59.749Z,18.40
2022-08-09T00:18:34.994Z,18.45
2022-08-09T00:21:05.204Z,18.31
2022-08-09T00:23:54.641Z,18.37
2022-08-09T00:26:32.190Z,18.39
2022-08-09T00:29:02.252Z,18.21
2022-08-09T00:31:57.606Z,18.24
2022-08-09T00:34:19.483Z,18.22
2022-08-09T00:36:50.165Z,18.25
2022-08-09T00:40:13.056Z,18.26
2022-08-09T00:44:11.608Z,18.18
2022-08-09T00:44:55.182Z,18.19
2022-08-09T00:47:24.668Z,17.82
2022-08-09T00:49:56.801Z,18.03
2022-08-09T00:52:30.381Z,17.95
2022-08-09T00:55:01.028Z,18.11
2022-08-09T00:57:34.581Z,17.93
2022-08-09T01:00:21.052Z,17.89
2022-08-09T01:02:57.796Z,17.65
2022-08-09T01:05:53.355Z,17.66
2022-08-09T01:08:29.232Z,17.78
2022-08-09T01:11:21.434Z,17.66
2022-08-09T01:14:00.000Z,17.70
2022-08-09T01:16:32.853Z,17.59
2022-08-09T01:19:08.413Z,17.57
2022-08-09T01:21:53.520Z,17.47
2022-08-09T01:24:36.164Z,17.44
2022-08-09T01:27:08.677Z,17.30
2022-08-09T01:29:55.264Z,17.41
2022-08-09T01:32:34.192Z,17.34
2022-08-09T01:35:37.367Z,17.34
2022-08-09T01:38:24.618Z,17.30
2022-08-09T01:41:05.014Z,17.45
2022-08-09T01:43:41.799Z,17.44
2022-08-09T01:46:26.831Z,17.38
2022-08-09T01:48:59.775Z,17.36
2022-08-09T01:51:32.309Z,17.23
2022-08-09T01:54:02.787Z,17.24
2022-08-09T01:56:33.241Z,17.31
2022-08-09T01:59:07.272Z,17.35
2022-08-09T02:01:59.013Z,17.19
2022-08-09T02:04:26.233Z,17.17
2022-08-09T02:09:42.402Z,17.13
2022-08-09T02:12:13.447Z,17.17
2022-08-09T02:14:51.810Z,17.32
2022-08-09T02:17:55.069Z,17.17
2022-08-09T02:20:12.216Z,17.26
2022-08-09T02:22:52.956Z,17.19
2022-08-09T02:25:29.776Z,17.10
2022-08-09T02:28:05.760Z,17.00
2022-08-09T02:30:46.434Z,16.99
2022-08-09T02:33:18.553Z,16.94
2022-08-09T02:36:03.369Z,17.01
2022-08-09T02:38:35.550Z,16.88
2022-08-09T02:41:08.161Z,16.92
2022-08-09T02:43:53.719Z,16.99
2022-08-09T02:46:27.455Z,16.80
2022-08-09T02:48:58.805Z,16.83
2022-08-09T02:51:36.934Z,16.67
2022-08-09T02:54:10.447Z,16.81
2022-08-09T02:56:42.668Z,16.70
2022-08-09T02:59:26.303Z,16.60
2022-08-09T03:02:07.142Z,16.54
2022-08-09T03:04:40.739Z,16.61
2022-08-09T03:07:12.475Z,16.53
2022-08-09T03:09:56.258Z,16.57
2022-08-09T03:12:25.953Z,16.74
2022-08-09T03:14:54.146Z,16.76
2022-08-09T03:17:26.767Z,16.72
2022-08-09T03:20:03.395Z,16.72
2022-08-09T03:22:44.485Z,16.75
2022-08-09T03:25:25.946Z,16.59
2022-08-09T03:28:05.492Z,16.69
2022-08-09T03:30:39.495Z,16.72
2022-08-09T03:33:17.413Z,16.71
2022-08-09T03:36:13.347Z,16.64
2022-08-09T03:38:41.670Z,16.69
2022-08-09T03:41:14.605Z,16.58
2022-08-09T03:44:02.861Z,16.59
2022-08-09T03:46:31.862Z,16.39
2022-08-09T03:49:03.885Z,16.43
2022-08-09T03:51:56.911Z,16.30
2022-08-09T03:54:29.549Z,16.39
2022-08-09T03:57:01.211Z,16.53
2022-08-09T03:59:43.263Z,16.60
2022-08-09T04:02:19.884Z,16.48
2022-08-09T04:04:56.338Z,16.56
2022-08-09T04:07:46.991Z,16.64
2022-08-09T04:10:15.525Z,16.55
2022-08-09T04:12:50.854Z,16.35
2022-08-09T04:15:39.258Z,16.33
2022-08-09T04:18:09.531Z,16.43
2022-08-09T04:20:43.996Z,16.34
2022-08-09T04:23:16.823Z,16.44
2022-08-09T04:25:51.651Z,16.42
2022-08-09T04:28:30.672Z,16.44
2022-08-09T04:31:05.827Z,16.45
2022-08-09T04:33:53.049Z,16.57
2022-08-09T04:36:28.689Z,16.59
2022-08-09T04:38:59.182Z,16.47
2022-08-09T04:41:32.251Z,16.46
2022-08-09T04:44:05.998Z,16.47
2022-08-09T04:46:38.047Z,16.62
2022-08-09T04:49:47.712Z,16.56
2022-08-09T04:52:18.610Z,16.57
2022-08-09T04:54:54.624Z,16.58
2022-08-09T04:57:24.536Z,16.42
2022-08-09T04:59:54.564Z,16.34
2022-08-09T05:02:23.877Z,16.15
2022-08-09T05:04:55.081Z,16.42
2022-08-09T05:07:23.956Z,16.34
2022-08-09T05:09:51.448Z,16.47
2022-08-09T05:12:18.990Z,16.43
2022-08-09T05:14:49.802Z,16.54
2022-08-09T05:18:39.732Z,16.81
2022-08-09T05:20:05.430Z,16.77
2022-08-09T05:23:51.182Z,16.76
2022-08-09T05:25:21.622Z,16.87
2022-08-09T05:27:50.521Z,16.91
2022-08-09T05:30:19.552Z,16.96
2022-08-09T05:32:50.971Z,17.00
2022-08-09T05:35:21.970Z,17.14
2022-08-09T05:37:50.445Z,17.18
2022-08-09T05:40:18.659Z,17.27
2022-08-09T05:42:46.901Z,17.21
2022-08-09T05:45:14.255Z,17.37
2022-08-09T05:47:52.951Z,17.23
2022-08-09T05:50:36.089Z,17.43
2022-08-09T05:53:21.423Z,17.49
2022-08-09T05:55:58.759Z,17.47
2022-08-09T05:58:25.913Z,17.62
2022-08-09T06:00:53.911Z,17.57
2022-08-09T06:03:21.119Z,17.48
2022-08-09T06:05:57.423Z,17.60
2022-08-09T06:08:33.542Z,17.66
2022-08-09T06:11:01.162Z,17.77
2022-08-09T06:13:34.095Z,17.72
2022-08-09T06:16:04.989Z,17.74
2022-08-09T06:18:32.916Z,17.89
2022-08-09T06:21:01.808Z,18.01
2022-08-09T06:23:57.627Z,17.82
2022-08-09T06:26:22.409Z,17.83
2022-08-09T06:29:00.087Z,18.16
2022-08-09T06:31:39.629Z,18.21
2022-08-09T06:34:22.855Z,17.90
2022-08-09T06:36:57.279Z,18.23
2022-08-09T06:39:48.294Z,18.38
2022-08-09T06:42:30.291Z,18.46
2022-08-09T06:44:58.406Z,18.48
2022-08-09T06:47:25.663Z,18.61
2022-08-09T06:50:13.299Z,18.62
2022-08-09T06:52:46.981Z,18.44
2022-08-09T06:55:26.364Z,18.47
2022-08-09T06:58:01.384Z,18.59
2022-08-09T07:00:54.523Z,18.57
2022-08-09T07:03:26.923Z,18.92
2022-08-09T07:06:03.431Z,18.84
2022-08-09T07:08:32.391Z,19.06
2022-08-09T07:10:59.559Z,19.05
2022-08-09T07:13:28.180Z,19.17
2022-08-09T07:16:42.209Z,19.12
2022-08-09T07:18:47.352Z,19.32
2022-08-09T07:21:14.578Z,19.52
2022-08-09T07:23:56.594Z,19.66
2022-08-09T07:26:25.937Z,19.80
2022-08-09T07:29:01.362Z,19.79
2022-08-09T07:31:38.654Z,19.79
2022-08-09T07:34:20.626Z,20.01
2022-08-09T07:36:52.847Z,20.01
2022-08-09T07:39:40.184Z,20.12
2022-08-09T07:42:08.499Z,20.34
2022-08-09T07:44:52.062Z,20.30
2022-08-09T07:47:21.196Z,20.51
2022-08-09T07:50:04.813Z,20.64
2022-08-09T07:52:36.544Z,20.58
2022-08-09T07:55:09.596Z,20.73
2022-08-09T07:57:47.230Z,20.83
2022-08-09T08:00:20.296Z,20.77
2022-08-09T08:03:01.594Z,20.93
2022-08-09T08:05:53.685Z,21.08
2022-08-09T08:09:02.218Z,21.20
2022-08-09T08:12:10.306Z,21.35
2022-08-09T08:13:57.185Z,21.41
2022-08-09T08:16:29.740Z,21.41
2022-08-09T08:18:59.788Z,21.56
2022-08-09T08:21:30.326Z,21.78
2022-08-09T08:23:57.491Z,21.61
2022-08-09T08:26:54.856Z,21.82
2022-08-09T08:29:20.328Z,21.85
2022-08-09T08:32:03.666Z,21.96
2022-08-09T08:34:34.716Z,21.85
2022-08-09T08:37:03.938Z,21.94
2022-08-09T08:39:39.241Z,22.29
2022-08-09T08:42:11.796Z,22.35
2022-08-09T08:44:41.408Z,22.54
2022-08-09T08:47:12.796Z,22.54
2022-08-09T08:49:46.944Z,22.54
2022-08-09T08:52:57.683Z,22.39
2022-08-09T08:55:10.324Z,22.54
2022-08-09T08:57:38.012Z,22.88
2022-08-09T09:00:20.445Z,22.89
2022-08-09T09:03:08.366Z,23.15
2022-08-09T09:05:58.457Z,22.86
2022-08-09T09:08:42.042Z,22.79
2022-08-09T09:11:17.181Z,23.12
2022-08-09T09:13:56.851Z,23.16
2022-08-09T09:16:29.818Z,23.24
2022-08-09T09:21:56.628Z,23.51
2022-08-09T09:24:30.258Z,23.68
2022-08-09T09:27:01.105Z,23.84
2022-08-09T09:29:57.990Z,23.94
2022-08-09T09:32:35.071Z,24.09
2022-08-09T09:35:07.794Z,23.91
2022-08-09T09:37:40.490Z,24.02
2022-08-09T09:40:10.053Z,24.24
2022-08-09T09:42:39.079Z,24.10
2022-08-09T09:45:10.288Z,24.52
2022-08-09T09:47:56.236Z,24.48
2022-08-09T09:50:50.933Z,24.68
2022-08-09T09:53:21.242Z,24.64
2022-08-09T09:55:57.573Z,24.90
2022-08-09T09:58:47.065Z,24.94
2022-08-09T10:01:31.544Z,25.10
2022-08-09T10:04:15.982Z,25.17
2022-08-09T10:06:46.940Z,25.22
2022-08-09T10:09:22.204Z,25.27
2022-08-09T10:12:14.571Z,25.33
2022-08-09T10:14:48.391Z,25.44
2022-08-09T10:17:39.701Z,25.46
2022-08-09T10:20:15.113Z,25.50
2022-08-09T10:22:42.687Z,25.55
2022-08-09T10:25:11.762Z,25.51
2022-08-09T10:27:56.832Z,25.44
2022-08-09T10:34:04.518Z,25.70
2022-08-09T10:36:02.999Z,25.81
2022-08-09T10:38:54.336Z,25.64
2022-08-09T10:41:20.582Z,25.73
2022-08-09T10:43:59.456Z,25.93
2022-08-09T10:47:00.648Z,25.32
2022-08-09T10:49:51.281Z,25.65
2022-08-09T10:52:26.458Z,25.97
2022-08-09T10:54:53.908Z,25.91
2022-08-09T10:57:23.257Z,25.64
2022-08-09T10:59:57.289Z,25.84
2022-08-09T11:03:47.120Z,26.18
2022-08-09T11:05:30.019Z,26.11
2022-08-09T11:08:43.566Z,26.48
2022-08-09T11:11:16.438Z,26.31
2022-08-09T11:13:51.427Z,26.15
2022-08-09T11:16:40.958Z,26.59
2022-08-09T11:19:10.601Z,26.59
2022-08-09T11:22:05.154Z,26.27
2022-08-09T11:25:15.680Z,26.59
2022-08-09T11:28:04.566Z,26.73
2022-08-09T11:30:34.651Z,26.39
2022-08-09T11:33:09.286Z,26.21
2022-08-09T11:35:49.578Z,26.71
2022-08-09T11:38:32.003Z,26.91
2022-08-09T11:41:13.428Z,26.91
2022-08-09T11:43:42.900Z,27.28
2022-08-09T11:46:10.684Z,27.05
2022-08-09T11:48:53.801Z,27.12
2022-08-09T11:52:56.796Z,26.70
2022-08-09T11:54:13.410Z,27.29
2022-08-09T11:56:42.209Z,27.46
2022-08-09T11:59:30.379Z,27.29
2022-08-09T12:02:34.412Z,27.39
2022-08-09T12:04:58.750Z,27.62
2022-08-09T12:07:41.345Z,27.91
2022-08-09T12:10:32.002Z,27.80
2022-08-09T12:13:03.691Z,27.76
2022-08-09T12:15:49.568Z,27.29
2022-08-09T12:18:29.563Z,27.65
2022-08-09T12:21:00.629Z,27.89
2022-08-09T12:23:56.500Z,27.79
2022-08-09T12:26:25.867Z,28.01
2022-08-09T12:29:10.357Z,28.26
2022-08-09T12:31:58.203Z,28.26
2022-08-09T12:34:39.937Z,28.27
2022-08-09T12:37:21.689Z,28.23
2022-08-09T12:40:11.626Z,27.39
2022-08-09T12:42:44.307Z,28.13
2022-08-09T12:45:34.057Z,28.31
2022-08-09T12:47:59.843Z,27.97
2022-08-09T12:50:28.604Z,28.06
2022-08-09T12:53:08.586Z,27.89
2022-08-09T12:56:12.544Z,28.22
2022-08-09T12:58:27.852Z,28.48
2022-08-09T13:00:56.607Z,28.65
2022-08-09T13:03:54.116Z,28.23
2022-08-09T13:06:35.634Z,28.62
2022-08-09T13:09:14.285Z,28.77
2022-08-09T13:11:47.180Z,28.85
2022-08-09T13:14:42.959Z,28.71
2022-08-09T13:17:13.570Z,28.91
2022-08-09T13:20:08.644Z,28.89
2022-08-09T13:22:45.735Z,28.76
2022-08-09T13:25:20.635Z,28.62
2022-08-09T13:27:55.085Z,28.74
2022-08-09T13:30:50.335Z,29.04
2022-08-09T13:33:22.359Z,28.84
2022-08-09T13:36:37.348Z,28.65
2022-08-09T13:38:57.434Z,28.59
2022-08-09T13:41:54.005Z,28.89
2022-08-09T13:44:13.630Z,28.94
2022-08-09T13:47:27.537Z,28.40
2022-08-09T13:49:37.861Z,28.87
2022-08-09T13:52:09.067Z,29.32
2022-08-09T13:54:42.911Z,29.44
2022-08-09T13:57:37.112Z,29.13
2022-08-09T14:00:17.875Z,29.45
2022-08-09T14:03:03.016Z,29.37
2022-08-09T14:05:59.406Z,29.46
2022-08-09T14:08:20.804Z,29.50
2022-08-09T14:10:52.628Z,29.68
2022-08-09T14:13:27.997Z,29.90
2022-08-09T14:16:14.202Z,29.74
2022-08-09T14:18:45.774Z,29.80
2022-08-09T14:21:23.103Z,30.03
2022-08-09T14:23:54.787Z,29.64
2022-08-09T14:26:30.553Z,28.50
2022-08-09T14:29:03.127Z,29.18
2022-08-09T14:31:35.800Z,29.10
2022-08-09T14:34:17.664Z,29.32
2022-08-09T14:36:55.426Z,29.19
2022-08-09T14:39:45.445Z,29.42
2022-08-09T14:42:09.743Z,30.08
2022-08-09T14:44:48.420Z,30.05
2022-08-09T14:47:39.757Z,30.04
2022-08-09T14:50:05.317Z,29.78
2022-08-09T14:52:33.159Z,30.54
2022-08-09T14:55:01.242Z,37.17
2022-08-09T14:57:31.809Z,42.27
2022-08-09T14:59:59.385Z,40.82
2022-08-09T15:02:28.182Z,37.81
2022-08-09T15:04:57.150Z,36.99
2022-08-09T15:07:25.776Z,36.66
2022-08-09T15:10:07.615Z,36.25
2022-08-09T15:12:38.672Z,36.49
2022-08-09T15:15:12.019Z,32.54
2022-08-09T15:17:42.149Z,40.13
2022-08-09T15:20:15.375Z,42.80
2022-08-09T15:24:01.170Z,39.96
2022-08-09T15:25:52.966Z,42.20
2022-08-09T15:28:27.981Z,44.76
2022-08-09T15:31:07.349Z,45.59
2022-08-09T15:34:17.709Z,46.93
2022-08-09T15:36:28.664Z,40.52
2022-08-09T15:38:58.745Z,39.10
2022-08-09T15:41:31.316Z,44.35
2022-08-09T15:44:03.632Z,40.15
2022-08-09T15:46:33.098Z,35.57
2022-08-09T15:49:21.658Z,33.21
2022-08-09T15:52:05.062Z,36.42
2022-08-09T15:54:46.230Z,36.36
2022-08-09T15:57:18.947Z,38.44
2022-08-09T16:00:05.518Z,38.14
2022-08-09T16:02:32.769Z,41.14
2022-08-09T16:05:03.910Z,44.04
2022-08-09T16:07:38.791Z,43.12
2022-08-09T16:10:11.263Z,46.01
2022-08-09T16:12:50.596Z,44.01
2022-08-09T16:16:12.355Z,41.38
2022-08-09T16:18:08.941Z,37.04
2022-08-09T16:20:37.948Z,37.36
2022-08-09T16:23:08.644Z,42.19
2022-08-09T16:25:40.392Z,43.24
2022-08-09T16:28:08.343Z,44.21
2022-08-09T16:30:40.927Z,45.74
2022-08-09T16:33:15.783Z,42.70
2022-08-09T16:35:56.692Z,43.41
2022-08-09T16:38:27.008Z,38.34
2022-08-09T16:40:54.257Z,41.61
2022-08-09T16:43:22.887Z,38.10
2022-08-09T16:45:53.788Z,37.02
2022-08-09T16:48:50.621Z,36.73
2022-08-09T16:51:14.235Z,36.85
2022-08-09T16:54:08.906Z,36.22
2022-08-09T16:56:31.608Z,35.91
2022-08-09T16:59:01.125Z,35.57
2022-08-09T17:01:33.601Z,36.55
2022-08-09T17:04:01.795Z,34.84
2022-08-09T17:06:31.861Z,38.84
2022-08-09T17:09:43.591Z,36.18
2022-08-09T17:11:48.170Z,34.74
2022-08-09T17:14:27.346Z,36.73
2022-08-09T17:16:59.847Z,39.40
2022-08-09T17:20:12.645Z,39.66
2022-08-09T17:22:29.057Z,37.34
2022-08-09T17:25:10.200Z,34.91
2022-08-09T17:27:48.700Z,33.94
2022-08-09T17:30:17.098Z,33.05
2022-08-09T17:32:47.104Z,30.67
2022-08-09T17:35:14.752Z,29.59
2022-08-09T17:38:11.770Z,31.38
2022-08-09T17:40:32.695Z,31.48
2022-08-09T17:43:10.782Z,30.02
2022-08-09T17:46:02.891Z,30.13
2022-08-09T17:48:33.841Z,28.89
2022-08-09T17:51:08.944Z,29.57
2022-08-09T17:53:48.178Z,30.09
2022-08-09T17:56:27.953Z,30.23
2022-08-09T17:59:03.275Z,29.47
2022-08-09T18:01:58.093Z,28.96
2022-08-09T18:04:20.012Z,28.95
2022-08-09T18:06:54.066Z,29.07
2022-08-09T18:09:25.137Z,29.19
2022-08-09T18:12:14.655Z,28.92
2022-08-09T18:14:53.362Z,28.05
2022-08-09T18:17:27.644Z,28.38
2022-08-09T18:20:56.439Z,28.03
2022-08-09T18:22:56.354Z,27.88
2022-08-09T18:25:53.377Z,27.74
2022-08-09T18:28:21.735Z,28.10
2022-08-09T18:30:58.661Z,27.68
2022-08-09T18:33:26.150Z,27.48
2022-08-09T18:35:59.426Z,27.17
2022-08-09T18:38:27.701Z,27.70
2022-08-09T18:40:55.468Z,27.39
2022-08-09T18:43:23.499Z,27.25
2022-08-09T18:46:49.452Z,27.28
2022-08-09T18:48:38.345Z,26.89
2022-08-09T18:51:09.828Z,26.84
2022-08-09T18:54:00.548Z,26.81
2022-08-09T18:56:28.240Z,26.65
2022-08-09T18:58:56.967Z,26.61
2022-08-09T19:01:25.651Z,26.66
2022-08-09T19:04:06.278Z,26.52
2022-08-09T19:06:38.677Z,26.54
2022-08-09T19:09:07.470Z,26.50
2022-08-09T19:11:38.268Z,26.40
2022-08-09T19:14:07.057Z,26.51
2022-08-09T19:16:35.941Z,26.24
2022-08-09T19:19:26.162Z,26.39
2022-08-09T19:22:06.557Z,26.25
2022-08-09T19:25:07.406Z,26.18
2022-08-09T19:27:23.534Z,26.12
2022-08-09T19:30:25.305Z,26.22
2022-08-09T19:32:44.353Z,26.05
2022-08-09T19:35:11.579Z,25.88
2022-08-09T19:37:54.113Z,25.81
2022-08-09T19:40:24.373Z,25.70
2022-08-09T19:43:05.430Z,25.74
2022-08-09T19:45:43.662Z,25.49
2022-08-09T19:48:11.887Z,25.54
2022-08-09T19:50:48.831Z,25.34
2022-08-09T19:53:20.498Z,25.23
2022-08-09T19:56:02.224Z,25.23
2022-08-09T19:58:33.777Z,25.23
2022-08-09T20:01:01.525Z,25.29
2022-08-09T20:04:17.954Z,25.02
2022-08-09T20:06:22.937Z,25.06
2022-08-09T20:08:55.387Z,25.17
2022-08-09T20:11:42.983Z,25.08
2022-08-09T20:14:16.401Z,24.87
2022-08-09T20:16:53.800Z,25.03
2022-08-09T20:19:48.901Z,24.79
2022-08-09T20:22:14.434Z,24.67
2022-08-09T20:24:42.762Z,24.63
2022-08-09T20:27:21.875Z,24.32
2022-08-09T20:29:49.375Z,24.35
2022-08-09T20:32:30.373Z,24.12
2022-08-09T20:35:06.045Z,24.19
2022-08-09T20:38:18.992Z,24.05
2022-08-09T20:40:26.535Z,23.89
2022-08-09T20:43:11.853Z,24.09
2022-08-09T20:46:00.357Z,23.83
2022-08-09T20:48:31.577Z,24.01
2022-08-09T20:51:03.188Z,23.87
2022-08-09T20:53:37.804Z,23.81
2022-08-09T20:56:20.544Z,23.62
2022-08-09T20:58:50.462Z,23.70
2022-08-09T21:01:35.121Z,23.71
2022-08-09T21:05:54.029Z,23.66
2022-08-09T21:06:56.606Z,23.55
2022-08-09T21:09:32.860Z,23.15
2022-08-09T21:14:46.103Z,22.19
2022-08-09T21:18:11.922Z,22.42
2022-08-09T21:20:22.842Z,22.37
2022-08-09T21:22:54.440Z,22.73
2022-08-09T21:25:44.441Z,23.00
2022-08-09T21:28:28.084Z,22.71
2022-08-09T21:31:16.994Z,22.29
2022-08-09T21:33:51.434Z,22.49
2022-08-09T21:36:25.903Z,22.61
2022-08-09T21:38:57.259Z,22.72
2022-08-09T21:42:04.302Z,22.31
2022-08-09T21:44:33.527Z,22.62
2022-08-09T21:47:04.619Z,22.48
2022-08-09T21:49:39.499Z,22.48
2022-08-09T21:52:16.669Z,22.38
2022-08-09T21:54:59.730Z,21.98
2022-08-09T21:57:38.357Z,22.21
2022-08-09T22:00:26.016Z,21.95
2022-08-09T22:02:58.197Z,22.04
2022-08-09T22:05:37.529Z,22.30
2022-08-09T22:08:13.697Z,22.25
2022-08-09T22:11:50.228Z,22.09
2022-08-09T22:13:35.439Z,22.25
2022-08-09T22:16:08.311Z,21.95
2022-08-09T22:18:44.020Z,22.04
2022-08-09T22:21:25.003Z,21.75
2022-08-09T22:24:16.933Z,21.87
2022-08-09T22:26:51.012Z,21.75
2022-08-09T22:29:24.042Z,21.82
2022-08-09T22:31:57.855Z,21.93
2022-08-09T22:34:26.258Z,21.88
2022-08-09T22:36:58.208Z,21.78
2022-08-09T22:39:58.048Z,21.82
2022-08-09T22:42:22.350Z,21.69
2022-08-09T22:45:00.385Z,21.80
2022-08-09T22:48:10.230Z,21.64
2022-08-09T22:50:29.561Z,21.75
2022-08-09T22:52:58.227Z,21.65
2022-08-09T22:55:39.419Z,21.69
2022-08-09T22:58:20.269Z,21.64
2022-08-09T23:01:05.483Z,21.67
2022-08-09T23:04:05.244Z,21.62
2022-08-09T23:06:30.133Z,21.69
2022-08-09T23:09:02.578Z,21.61
2022-08-09T23:11:29.686Z,21.56
2022-08-09T23:13:56.825Z,21.60
2022-08-09T23:16:23.930Z,21.61
2022-08-09T23:18:51.082Z,21.55
2022-08-09T23:21:26.777Z,21.60
2022-08-09T23:24:05.646Z,21.55
2022-08-09T23:26:38.072Z,21.52
2022-08-09T23:29:07.233Z,21.48
2022-08-09T23:31:34.213Z,21.38
2022-08-09T23:34:03.713Z,21.38
2022-08-09T23:36:31.957Z,21.43
2022-08-09T23:38:59.169Z,21.35
2022-08-09T23:41:28.988Z,21.36
2022-08-09T23:44:00.955Z,21.30
2022-08-09T23:46:29.546Z,21.30
2022-08-09T23:48:57.858Z,21.24
2022-08-09T23:51:26.024Z,21.20
2022-08-09T23:53:55.383Z,21.22
2022-08-09T23:56:52.665Z,21.19
2022-08-09T23:59:17.740Z,21.15
